Sheyang, China
Current Conditions -  °F | °C
As of 5:00 AM on Friday 24 Oct 2014 (Local Time) from ZSQD Reporting Station
Haze Haze  
Wind Chill: 63°   Ceiling: Unl
Heat Index: 63°   Visibility: 1.7mi
Dew Point: 57°   Wind: 11mph
Humidity: 82%   Direction: 170°S
Pressure: 30"   Gusts: NA
Location:  33.77°N, 120.25°E
Report Text: ZSQD 232100Z 17005MPS 2800 BR NSC 17/14 Q1016 NOSIG
Loading
Personal Weather Stations






























Interactive Weather Map
Tropical Storm Tracking
New forecast layout! Learn more

10-Day Weather Forecast

Advertisements
Track Severe Weather on mobile